Emerald, Wisconsin
Current Conditions -  °F | °C
As of 2:55 PM on Tuesday 27 Jan 2015 (Local Time) from KRNH Reporting Station
Overcast Overcast  
Wind Chill: 23°   Ceiling: 1700
Heat Index: 31°   Visibility: 10mi
Dew Point: 24°   Wind: 8mph
Humidity: 75%   Direction: 180°S
Pressure: 30.16"   Gusts: NA
Location:  45.08°N, 92.26°W
Report Text: KRNH 272055Z AUTO 18007KT 10SM OVC017 M01/M05 A3016 RMK AO2 T10061046
Loading
Personal Weather Stations






























Interactive Weather Map New forecast layout! Learn more

10-Day Weather Forecast

Advertisements
Track Severe Weather on mobile